Time;durP1;ratioP1;P1;durP2;ratioP2;P2;SDS_P1;SDS_P2;PMS_P1;PMS_P2;Temp;Humidity;BMP_temperature;BMP_pressure;BME280_temperature;BME280_humidity;BME280_pressure;Samples;Min_cycle;Max_cycle;Signal;HPM_P1;HPM_P2
2023/01/21 00:00:22;;;;;;;35.77;19.97;;;;;;;-2.71;89.79;101770.22;5035481;28;20209;-80
2023/01/21 00:02:50;;;;;;;40.33;20.70;;;;;;;-2.73;90.03;101766.72;5037843;28;20213;-80
2023/01/21 00:05:16;;;;;;;33.73;20.10;;;;;;;-2.76;90.15;101769.31;5034060;28;21592;-77
2023/01/21 00:07:43;;;;;;;32.03;20.53;;;;;;;-2.78;90.35;101771.88;5035750;28;20248;-77
2023/01/21 00:10:10;;;;;;;37.77;20.30;;;;;;;-2.80;89.93;101776.22;5032361;28;20697;-79
2023/01/21 00:12:37;;;;;;;34.37;20.73;;;;;;;-2.84;90.04;101772.69;5034515;28;21496;-80
2023/01/21 00:15:04;;;;;;;33.17;18.57;;;;;;;-2.86;90.17;101774.41;5034337;28;20233;-80
2023/01/21 00:17:34;;;;;;;33.87;20.00;;;;;;;-2.88;90.30;101776.16;5033270;28;20210;-80
2023/01/21 00:20:02;;;;;;;37.27;19.57;;;;;;;-2.90;90.55;101785.69;5032913;28;20294;-78
2023/01/21 00:22:29;;;;;;;37.13;19.93;;;;;;;-2.92;90.46;101778.72;5036922;28;20217;-79
2023/01/21 00:24:56;;;;;;;40.20;21.23;;;;;;;-2.94;90.49;101789.13;5035104;28;20218;-78
2023/01/21 00:27:22;;;;;;;41.97;21.03;;;;;;;-2.96;90.68;101783.03;5034119;28;20210;-78
2023/01/21 00:29:49;;;;;;;37.47;21.97;;;;;;;-2.98;90.19;101792.56;5033197;28;20263;-78
2023/01/21 00:32:15;;;;;;;39.97;21.07;;;;;;;-3.00;90.86;101796.88;5035860;28;20202;-78
2023/01/21 00:34:42;;;;;;;36.97;20.50;;;;;;;-3.01;90.54;101807.28;5033186;28;20697;-78
2023/01/21 00:37:10;;;;;;;39.23;20.50;;;;;;;-3.04;90.45;101805.50;5027047;28;20217;-77
2023/01/21 00:39:41;;;;;;;38.50;21.50;;;;;;;-3.05;90.41;101805.53;5034100;28;20209;-78
2023/01/21 00:42:08;;;;;;;41.70;21.50;;;;;;;-3.07;90.91;101809.84;5033921;28;20206;-78
2023/01/21 00:44:34;;;;;;;40.40;20.67;;;;;;;-3.08;90.79;101810.69;5035209;28;20229;-78
2023/01/21 00:47:00;;;;;;;39.37;21.30;;;;;;;-3.12;90.75;101803.69;5033028;28;20608;-78
2023/01/21 00:49:27;;;;;;;38.33;20.93;;;;;;;-3.14;91.20;101811.50;5031222;28;20226;-78
2023/01/21 00:51:53;;;;;;;38.37;20.63;;;;;;;-3.18;91.32;101810.56;5032803;28;20209;-79
2023/01/21 00:54:21;;;;;;;45.53;21.67;;;;;;;-3.19;91.25;101806.22;5032459;28;20237;-78
2023/01/21 00:56:48;;;;;;;39.83;21.13;;;;;;;-3.19;90.95;101818.38;5032741;28;20211;-79
2023/01/21 00:59:14;;;;;;;39.13;20.23;;;;;;;-3.22;90.86;101820.94;5032148;28;20201;-77
2023/01/21 01:01:41;;;;;;;48.77;22.83;;;;;;;-3.25;91.29;101826.16;5039166;28;20205;-79
2023/01/21 01:04:09;;;;;;;35.37;19.17;;;;;;;-3.29;90.71;101835.66;5032732;28;20765;-79
2023/01/21 01:06:36;;;;;;;33.63;19.43;;;;;;;-3.32;91.28;101832.13;5036184;28;20285;-80
2023/01/21 01:09:03;;;;;;;35.57;20.43;;;;;;;-3.34;91.02;101839.03;5026581;28;20230;-79
2023/01/21 01:11:31;;;;;;;38.93;19.70;;;;;;;-3.37;90.93;101839.88;5026568;28;20207;-79
2023/01/21 01:13:59;;;;;;;40.70;20.73;;;;;;;-3.38;91.26;101850.25;5034917;28;20226;-80
2023/01/21 01:16:26;;;;;;;38.77;18.70;;;;;;;-3.40;91.10;101849.41;5031445;28;20233;-77
2023/01/21 01:18:52;;;;;;;39.33;20.67;;;;;;;-3.42;90.97;101859.78;5030380;28;20231;-78
2023/01/21 01:21:20;;;;;;;42.10;20.83;;;;;;;-3.44;91.52;101860.63;5029894;28;20217;-78
2023/01/21 01:23:48;;;;;;;39.30;20.87;;;;;;;-3.46;91.07;101867.53;5029046;28;20222;-77
2023/01/21 01:26:16;;;;;;;45.30;20.87;;;;;;;-3.47;91.21;101868.41;5030772;28;20297;-77
2023/01/21 01:28:44;;;;;;;41.23;21.53;;;;;;;-3.50;91.27;101864.00;5033153;28;20686;-79
2023/01/21 01:31:12;;;;;;;43.63;21.47;;;;;;;-3.51;91.41;101865.75;5031597;28;20210;-77
2023/01/21 01:33:39;;;;;;;37.73;22.60;;;;;;;-3.53;91.29;101877.88;5031879;28;20199;-80
2023/01/21 01:36:07;;;;;;;39.87;20.83;;;;;;;-3.54;91.23;101880.44;5031854;28;20221;-78
2023/01/21 01:38:34;;;;;;;39.90;21.63;;;;;;;-3.55;91.36;101887.38;5031808;28;20216;-80
2023/01/21 01:41:01;;;;;;;40.00;20.90;;;;;;;-3.55;91.98;101882.16;5031198;28;20198;-78
2023/01/21 01:43:50;;;;;;;43.80;21.77;;;;;;;-3.55;92.21;101886.50;5031698;28;20218;-77
2023/01/21 01:46:16;;;;;;;41.60;20.03;;;;;;;-3.54;92.03;101893.47;5023834;28;20199;-78
2023/01/21 01:48:46;;;;;;;49.13;23.63;;;;;;;-3.54;92.40;101890.84;5031350;28;20198;-78
2023/01/21 01:51:15;;;;;;;45.70;23.30;;;;;;;-3.52;92.35;101897.84;5029376;28;20206;-77
2023/01/21 01:53:45;;;;;;;38.67;20.27;;;;;;;-3.51;92.66;101907.41;5029996;28;20650;-79
2023/01/21 01:56:12;;;;;;;39.63;21.10;;;;;;;-3.49;93.29;101910.03;5035154;28;20365;-80
2023/01/21 01:58:39;;;;;;;36.87;19.87;;;;;;;-3.48;93.09;101914.41;5029439;28;20206;-79
2023/01/21 02:01:07;;;;;;;48.20;21.13;;;;;;;-3.47;93.37;101918.75;5035572;28;20210;-78
2023/01/21 02:03:49;;;;;;;39.93;21.00;;;;;;;-3.45;93.39;101922.25;5035039;28;20213;-77
2023/01/21 02:06:18;;;;;;;40.03;22.73;;;;;;;-3.44;93.48;101925.75;5033648;28;20229;-78
2023/01/21 02:08:46;;;;;;;42.17;22.13;;;;;;;-3.41;93.79;101923.19;5037890;28;20213;-79
2023/01/21 02:11:13;;;;;;;45.50;21.43;;;;;;;-3.40;94.07;101928.38;5036322;28;20198;-78
2023/01/21 02:13:43;;;;;;;50.37;22.77;;;;;;;-3.36;94.17;101931.91;5038405;28;20553;-80
2023/01/21 02:16:38;;;;;;;50.33;22.97;;;;;;;-3.33;94.71;101937.16;5030411;28;20232;-79
2023/01/21 02:19:27;;;;;;;50.47;25.27;;;;;;;-3.30;94.92;101939.81;5037917;28;20293;-79
2023/01/21 02:22:12;;;;;;;61.30;24.67;;;;;;;-3.27;95.20;101948.56;5036570;28;20206;-78
2023/01/21 02:25:18;;;;;;;56.10;26.90;;;;;;;-3.19;95.94;101946.03;5034345;28;20226;-79
2023/01/21 02:27:52;;;;;;;60.83;26.17;;;;;;;-3.11;95.92;101953.97;5028101;28;20212;-80
2023/01/21 02:30:41;;;;;;;60.77;26.27;;;;;;;-3.05;96.67;101954.06;5029185;28;20694;-80
2023/01/21 02:33:52;;;;;;;57.47;25.47;;;;;;;-2.99;96.83;101970.63;5035284;28;20206;-78
2023/01/21 02:36:35;;;;;;;53.70;24.53;;;;;;;-2.94;97.07;101968.97;5025895;28;20214;-79
2023/01/21 02:39:11;;;;;;;56.70;25.70;;;;;;;-2.89;97.40;101967.31;5039998;28;20212;-78
2023/01/21 02:41:50;;;;;;;58.60;26.07;;;;;;;-2.84;97.52;101981.25;5036717;28;20217;-79
2023/01/21 02:44:21;;;;;;;51.40;25.57;;;;;;;-2.78;97.90;101974.38;5035969;28;20225;-79
2023/01/21 02:46:53;;;;;;;49.43;24.20;;;;;;;-2.74;98.12;101976.16;5036054;28;20599;-80
2023/01/21 02:49:30;;;;;;;56.67;25.40;;;;;;;-2.71;98.14;101976.22;5033792;28;20233;-80
2023/01/21 02:51:58;;;;;;;61.83;27.10;;;;;;;-2.66;98.78;101984.94;5032742;28;20242;-80
2023/01/21 02:54:54;;;;;;;60.33;26.53;;;;;;;-2.62;98.88;101986.75;5035580;28;20237;-77
2023/01/21 02:57:39;;;;;;;54.00;24.87;;;;;;;-2.60;98.97;101985.03;5034153;28;20202;-78
2023/01/21 03:00:11;;;;;;;49.93;24.53;;;;;;;-2.56;99.14;101986.81;5034804;28;20194;-79
2023/01/21 03:03:18;;;;;;;52.30;25.90;;;;;;;-2.54;99.14;101990.31;5032246;28;20206;-78
2023/01/21 03:06:03;;;;;;;51.90;23.73;;;;;;;-2.49;99.42;101999.06;5016113;28;20226;-78
2023/01/21 03:08:39;;;;;;;58.80;23.87;;;;;;;-2.47;99.48;101995.59;5037022;28;20198;-79
2023/01/21 03:11:13;;;;;;;54.77;24.17;;;;;;;-2.44;99.80;102007.81;5032816;28;20438;-79
2023/01/21 03:19:19;;;;;;;51.73;23.20;;;;;;;-2.35;100.00;102013.16;5030082;28;20201;-79
2023/01/21 03:21:48;;;;;;;51.77;22.93;;;;;;;-2.32;100.00;102009.69;5032615;28;20194;-79
2023/01/21 03:24:16;;;;;;;57.50;24.80;;;;;;;-2.29;100.00;102007.09;5031835;28;20237;-79
2023/01/21 03:26:47;;;;;;;54.77;25.10;;;;;;;-2.26;100.00;102008.03;5036899;28;20221;-79
2023/01/21 03:29:17;;;;;;;51.93;23.43;;;;;;;-2.24;100.00;102008.91;5034245;28;20700;-79
2023/01/21 03:31:48;;;;;;;54.63;24.13;;;;;;;-2.22;100.00;102004.59;5026354;28;20650;-79
2023/01/21 03:34:16;;;;;;;55.97;25.07;;;;;;;-2.19;100.00;102009.84;5012372;28;20238;-79
2023/01/21 03:36:48;;;;;;;45.50;22.37;;;;;;;-2.16;100.00;102002.06;5012447;28;20697;-80
2023/01/21 03:39:23;;;;;;;46.83;22.37;;;;;;;-2.13;100.00;102009.91;5035940;28;20190;-80
2023/01/21 03:41:50;;;;;;;46.50;21.27;;;;;;;-2.10;100.00;102016.88;5052151;28;20216;-82
2023/01/21 03:44:16;;;;;;;49.43;23.70;;;;;;;-2.08;100.00;102009.94;5051709;28;20230;-80
2023/01/21 03:46:49;;;;;;;40.97;21.00;;;;;;;-2.06;100.00;102007.34;5051701;28;20217;-80
2023/01/21 03:49:20;;;;;;;46.70;22.70;;;;;;;-2.02;100.00;102011.75;5052077;28;20209;-81
2023/01/21 03:51:51;;;;;;;53.03;22.57;;;;;;;-2.00;100.00;102021.34;5041420;28;20213;-81
2023/01/21 03:54:19;;;;;;;48.83;22.10;;;;;;;-1.97;100.00;102030.97;5031400;28;20237;-80
2023/01/21 03:56:45;;;;;;;44.00;22.20;;;;;;;-1.94;100.00;102015.28;5031836;28;20209;-81
2023/01/21 03:59:12;;;;;;;44.97;21.23;;;;;;;-1.90;100.00;102011.88;5031700;28;20280;-81
2023/01/21 04:01:40;;;;;;;41.50;20.77;;;;;;;-1.88;100.00;102010.16;5031509;28;20575;-81
2023/01/21 04:04:07;;;;;;;37.90;18.50;;;;;;;-1.85;100.00;102004.97;5032586;28;20222;-81
2023/01/21 04:06:35;;;;;;;42.33;20.63;;;;;;;-1.83;100.00;102006.72;5032212;28;20214;-81
2023/01/21 04:09:02;;;;;;;42.60;19.80;;;;;;;-1.80;100.00;102008.50;5032322;28;20210;-81
2023/01/21 04:11:30;;;;;;;37.47;19.33;;;;;;;-1.78;100.00;102002.38;5032135;28;20248;-79
2023/01/21 04:13:56;;;;;;;42.03;19.27;;;;;;;-1.76;100.00;102005.91;5032947;28;20233;-82
2023/01/21 04:16:23;;;;;;;38.03;20.07;;;;;;;-1.73;100.00;102007.66;5033126;28;20217;-81
2023/01/21 04:18:49;;;;;;;44.10;18.93;;;;;;;-1.71;100.00;102003.34;5031547;28;20214;-82
2023/01/21 04:21:16;;;;;;;44.00;20.43;;;;;;;-1.69;100.00;102001.59;5031375;28;20202;-82
2023/01/21 04:23:43;;;;;;;43.40;20.77;;;;;;;-1.67;100.00;102009.47;5030674;28;20563;-82
2023/01/21 04:26:09;;;;;;;38.37;19.13;;;;;;;-1.65;100.00;102005.13;5030959;28;20222;-81
2023/01/21 04:28:37;;;;;;;39.07;18.73;;;;;;;-1.64;100.00;102005.16;5022354;28;20221;-81
2023/01/21 04:31:03;;;;;;;39.87;18.57;;;;;;;-1.62;100.00;102006.03;5030382;28;20222;-81
2023/01/21 04:33:30;;;;;;;44.90;20.97;;;;;;;-1.59;100.00;102013.88;5033313;28;20214;-80
2023/01/21 04:35:57;;;;;;;39.13;17.63;;;;;;;-1.56;100.00;102019.13;5035429;28;20615;-80
2023/01/21 04:38:24;;;;;;;40.30;18.60;;;;;;;-1.55;100.00;102018.25;5035105;28;20233;-81
2023/01/21 04:40:53;;;;;;;41.23;19.67;;;;;;;-1.53;100.00;102024.38;5034785;28;20570;-80
2023/01/21 04:43:20;;;;;;;36.90;19.17;;;;;;;-1.51;100.00;102017.44;5036539;28;20214;-82
2023/01/21 04:45:49;;;;;;;36.40;18.83;;;;;;;-1.50;100.00;102026.16;5035571;28;20287;-81
2023/01/21 04:48:15;;;;;;;40.93;19.07;;;;;;;-1.49;100.00;102026.16;5035389;28;20897;-81
2023/01/21 04:50:42;;;;;;;35.97;17.73;;;;;;;-1.46;100.00;102025.31;5027295;28;20234;-82
2023/01/21 04:53:08;;;;;;;43.80;19.07;;;;;;;-1.46;100.00;102018.34;5037085;28;20209;-81
2023/01/21 04:55:35;;;;;;;41.50;19.07;;;;;;;-1.45;100.00;102025.34;5036026;28;20225;-81
2023/01/21 04:58:01;;;;;;;38.03;18.67;;;;;;;-1.44;100.00;102024.47;5035896;28;20213;-82
2023/01/21 05:00:28;;;;;;;38.33;18.70;;;;;;;-1.43;100.00;102028.81;5024647;28;20206;-81
2023/01/21 05:02:56;;;;;;;38.37;18.87;;;;;;;-1.41;100.00;102027.06;5046900;28;20210;-82
2023/01/21 05:05:22;;;;;;;39.67;19.43;;;;;;;-1.39;100.00;102032.31;5044961;28;20335;-82
2023/01/21 05:07:52;;;;;;;35.17;18.43;;;;;;;-1.38;100.00;102033.19;5054785;28;20712;-83
2023/01/21 05:10:19;;;;;;;42.87;18.83;;;;;;;-1.36;100.00;102039.31;5042740;28;20269;-81
2023/01/21 05:12:47;;;;;;;37.10;18.23;;;;;;;-1.36;100.00;102036.69;5034658;28;20206;-81
2023/01/21 05:15:13;;;;;;;34.27;17.57;;;;;;;-1.34;100.00;102038.47;5035142;28;20230;-81
2023/01/21 05:17:40;;;;;;;39.90;17.47;;;;;;;-1.33;100.00;102036.72;5035072;28;20202;-81
2023/01/21 05:20:09;;;;;;;39.63;19.33;;;;;;;-1.32;100.00;102043.72;5034677;28;20198;-81
2023/01/21 05:22:35;;;;;;;35.40;17.70;;;;;;;-1.30;100.00;102049.81;5031088;28;20206;-82
2023/01/21 05:25:02;;;;;;;32.87;17.63;;;;;;;-1.30;100.00;102047.22;5030164;28;20229;-81
2023/01/21 05:27:28;;;;;;;37.47;18.87;;;;;;;-1.30;100.00;102052.44;5034676;28;20218;-81
2023/01/21 05:29:55;;;;;;;39.17;18.57;;;;;;;-1.28;100.00;102059.44;5034855;28;20198;-83
2023/01/21 05:32:22;;;;;;;37.57;19.40;;;;;;;-1.27;100.00;102066.41;5033972;28;20794;-82
2023/01/21 05:34:49;;;;;;;42.17;19.43;;;;;;;-1.25;100.00;102061.16;5034288;28;20223;-80
2023/01/21 05:37:16;;;;;;;41.30;19.00;;;;;;;-1.24;100.00;102065.53;5034141;28;20210;-82
2023/01/21 05:39:43;;;;;;;36.67;17.90;;;;;;;-1.23;100.00;102068.16;5030214;28;20199;-81
2023/01/21 05:42:09;;;;;;;39.23;18.93;;;;;;;-1.22;100.00;102066.41;5015379;28;20354;-81
2023/01/21 05:44:36;;;;;;;36.70;18.93;;;;;;;-1.22;100.00;102066.41;5013795;28;20226;-80
2023/01/21 05:47:02;;;;;;;39.80;18.87;;;;;;;-1.20;100.00;102069.91;5018821;28;20201;-80
2023/01/21 05:49:29;;;;;;;35.47;19.27;;;;;;;-1.20;100.00;102076.03;5034783;28;20199;-80
2023/01/21 05:51:55;;;;;;;33.00;18.30;;;;;;;-1.20;100.00;102073.41;5034756;28;20226;-81
2023/01/21 05:54:23;;;;;;;34.73;18.87;;;;;;;-1.19;100.00;102083.00;5039262;28;21417;-81
2023/01/21 05:56:50;;;;;;;37.60;17.73;;;;;;;-1.18;100.00;102076.91;5036473;28;20199;-82
2023/01/21 05:59:16;;;;;;;40.43;20.67;;;;;;;-1.19;100.00;102074.28;5035924;28;20210;-83
2023/01/21 06:01:42;;;;;;;40.63;21.60;;;;;;;-1.18;100.00;102070.81;5040309;28;20202;-84
2023/01/21 06:04:09;;;;;;;36.47;20.40;;;;;;;-1.17;100.00;102075.19;5045226;28;20233;-84
2023/01/21 06:06:35;;;;;;;38.70;19.67;;;;;;;-1.17;100.00;102081.28;5046453;28;20215;-83
2023/01/21 06:09:02;;;;;;;39.00;19.97;;;;;;;-1.15;100.00;102086.53;5036777;28;20202;-84
2023/01/21 06:11:30;;;;;;;34.13;19.53;;;;;;;-1.14;100.00;102083.06;5040475;28;20592;-82
2023/01/21 06:13:57;;;;;;;37.40;19.30;;;;;;;-1.13;100.00;102082.19;5043189;28;20229;-82
2023/01/21 06:16:23;;;;;;;36.50;19.30;;;;;;;-1.13;100.00;102088.28;5037471;28;20217;-84
2023/01/21 06:18:50;;;;;;;36.60;17.33;;;;;;;-1.11;100.00;102091.78;5038565;28;20213;-83
2023/01/21 06:21:16;;;;;;;34.30;19.73;;;;;;;-1.11;100.00;102089.19;5037520;28;20225;-82
2023/01/21 06:23:43;;;;;;;34.70;19.00;;;;;;;-1.09;100.00;102094.44;5028227;28;20194;-84
2023/01/21 06:26:09;;;;;;;34.47;19.80;;;;;;;-1.10;100.00;102098.78;5039934;28;20221;-83
2023/01/21 06:28:37;;;;;;;32.77;19.57;;;;;;;-1.08;100.00;102112.75;5039315;28;20214;-82
2023/01/21 06:31:03;;;;;;;32.47;18.27;;;;;;;-1.06;100.00;102115.34;5038469;28;20218;-84
2023/01/21 06:33:30;;;;;;;36.10;17.87;;;;;;;-1.05;100.00;102111.88;5038314;28;20210;-83
2023/01/21 06:35:56;;;;;;;35.17;19.20;;;;;;;-1.05;100.00;102115.34;5038084;28;20206;-84
2023/01/21 06:38:23;;;;;;;35.30;18.70;;;;;;;-1.02;100.00;102129.31;5038461;28;20194;-84
2023/01/21 06:40:49;;;;;;;38.97;19.00;;;;;;;-1.03;100.00;102128.44;5034790;28;20199;-85
2023/01/21 06:43:16;;;;;;;38.30;18.30;;;;;;;-1.01;100.00;102133.69;5030457;28;20233;-84
2023/01/21 06:45:43;;;;;;;35.33;18.00;;;;;;;-1.01;100.00;102137.19;5035717;28;20233;-85
2023/01/21 06:48:10;;;;;;;36.83;17.93;;;;;;;-0.99;100.00;102139.81;5037913;28;20213;-80
2023/01/21 06:50:36;;;;;;;37.13;18.63;;;;;;;-0.99;100.00;102147.66;5034351;28;20238;-82
2023/01/21 06:53:03;;;;;;;40.60;18.87;;;;;;;-0.99;100.00;102153.75;5033883;28;20214;-81
2023/01/21 06:55:29;;;;;;;38.37;17.83;;;;;;;-0.98;100.00;102155.50;5033508;28;20226;-81
2023/01/21 06:57:56;;;;;;;34.37;16.20;;;;;;;-0.98;100.00;102157.25;5033209;28;20221;-82
2023/01/21 07:00:22;;;;;;;24.50;11.87;;;;;;;-0.99;100.00;102164.22;5031061;28;20213;-81
2023/01/21 07:02:55;;;;;;;36.67;15.73;;;;;;;-1.00;100.00;102159.84;5030620;28;20201;-81
2023/01/21 07:05:21;;;;;;;34.37;14.93;;;;;;;-0.99;100.00;102164.22;5033228;28;20225;-80
2023/01/21 07:07:47;;;;;;;28.83;15.00;;;;;;;-0.98;100.00;102176.44;5030468;28;20217;-79
2023/01/21 07:10:14;;;;;;;32.33;15.70;;;;;;;-0.95;100.00;102180.81;5030827;28;20202;-79
2023/01/21 07:12:41;;;;;;;27.97;15.13;;;;;;;-0.95;100.00;102180.81;5032336;28;20221;-81
2023/01/21 07:15:08;;;;;;;29.20;15.47;;;;;;;-0.93;100.00;102185.19;5030870;28;20226;-80
2023/01/21 07:17:35;;;;;;;29.53;15.07;;;;;;;-0.93;100.00;102189.56;5029854;28;20214;-79
2023/01/21 07:20:03;;;;;;;39.10;16.33;;;;;;;-0.90;99.97;102192.19;5029424;28;20221;-79
2023/01/21 07:22:30;;;;;;;33.70;15.37;;;;;;;-0.90;100.00;102187.84;5028462;28;20205;-80
2023/01/21 07:24:57;;;;;;;25.50;13.63;;;;;;;-0.89;100.00;102194.78;5031197;28;20606;-81
2023/01/21 07:27:23;;;;;;;31.40;13.97;;;;;;;-0.89;100.00;102197.41;5030621;28;20701;-79
2023/01/21 07:29:50;;;;;;;30.53;14.33;;;;;;;-0.88;100.00;102196.56;5031543;28;20206;-80
2023/01/21 07:32:16;;;;;;;27.33;13.03;;;;;;;-0.87;100.00;102194.81;5026702;28;20324;-81
2023/01/21 07:34:43;;;;;;;28.07;14.17;;;;;;;-0.86;100.00;102196.56;5029871;28;20290;-81
2023/01/21 07:37:11;;;;;;;27.97;13.13;;;;;;;-0.86;99.98;102200.06;5029617;28;20794;-82
2023/01/21 07:39:37;;;;;;;29.63;13.87;;;;;;;-0.85;100.00;102201.81;5030431;28;20685;-81
2023/01/21 07:42:04;;;;;;;26.70;13.17;;;;;;;-0.85;100.00;102199.19;5031259;28;20206;-80
2023/01/21 07:44:30;;;;;;;27.00;13.03;;;;;;;-0.83;100.00;102207.94;5028247;28;20820;-80
2023/01/21 07:46:57;;;;;;;25.53;11.27;;;;;;;-0.83;99.88;102209.69;5030821;28;20596;-81
2023/01/21 07:49:23;;;;;;;22.27;11.90;;;;;;;-0.83;100.00;102205.31;5027252;28;20218;-81
2023/01/21 07:51:50;;;;;;;22.83;11.73;;;;;;;-0.83;99.77;102210.56;5031153;28;20229;-82
2023/01/21 07:54:18;;;;;;;22.93;12.17;;;;;;;-0.83;99.71;102213.16;5031364;28;20229;-80
2023/01/21 07:56:44;;;;;;;22.73;11.60;;;;;;;-0.83;100.00;102218.41;5030819;28;20205;-81
2023/01/21 07:59:12;;;;;;;26.77;11.80;;;;;;;-0.82;99.96;102217.53;5027866;28;20206;-79
2023/01/21 08:01:38;;;;;;;25.10;13.00;;;;;;;-0.82;99.26;102217.53;5030708;28;20687;-81
2023/01/21 08:04:05;;;;;;;22.37;11.17;;;;;;;-0.82;99.32;102225.38;5029864;28;20234;-81
2023/01/21 08:06:32;;;;;;;21.50;10.40;;;;;;;-0.81;99.48;102224.53;5037645;28;20205;-80
2023/01/21 08:08:58;;;;;;;21.50;10.93;;;;;;;-0.82;99.23;102227.13;5033029;28;20202;-82
2023/01/21 08:11:26;;;;;;;23.93;10.97;;;;;;;-0.83;99.36;102231.47;5041054;28;20229;-79
2023/01/21 08:13:53;;;;;;;20.00;10.40;;;;;;;-0.82;99.49;102232.34;5033200;28;20225;-80
2023/01/21 08:16:19;;;;;;;23.03;10.33;;;;;;;-0.82;98.88;102235.84;5031134;28;20216;-81
2023/01/21 08:18:45;;;;;;;23.13;11.73;;;;;;;-0.82;99.02;102234.97;5029289;28;20202;-81
2023/01/21 08:21:12;;;;;;;20.07;10.77;;;;;;;-0.82;98.77;102243.69;5034344;28;20198;-81
2023/01/21 08:23:38;;;;;;;21.60;10.27;;;;;;;-0.81;98.74;102247.19;5039747;28;20202;-81
2023/01/21 08:26:06;;;;;;;25.17;10.27;;;;;;;-0.82;98.73;102246.31;5032993;28;20225;-80
2023/01/21 08:28:34;;;;;;;20.20;10.40;;;;;;;-0.82;98.76;102254.16;5033810;28;20724;-80
2023/01/21 08:31:05;;;;;;;21.00;9.90;;;;;;;-0.83;98.62;102260.25;5031496;28;20198;-80
2023/01/21 08:33:31;;;;;;;17.00;9.37;;;;;;;-0.82;98.41;102255.91;5036435;28;20214;-80
2023/01/21 08:36:01;;;;;;;19.90;9.90;;;;;;;-0.82;98.43;102269.84;5035807;28;20225;-81
2023/01/21 08:38:28;;;;;;;18.93;9.93;;;;;;;-0.81;98.42;102262.88;5032980;28;20245;-81
2023/01/21 08:40:57;;;;;;;18.20;9.87;;;;;;;-0.82;98.49;102258.50;5034706;28;20198;-81
2023/01/21 08:43:23;;;;;;;19.07;9.57;;;;;;;-0.82;98.00;102267.22;5036276;28;20268;-80
2023/01/21 08:45:51;;;;;;;17.13;8.97;;;;;;;-0.83;98.19;102270.72;5036487;28;20589;-81
2023/01/21 08:48:18;;;;;;;16.53;9.47;;;;;;;-0.82;98.00;102266.34;5038764;28;20209;-80
2023/01/21 08:50:44;;;;;;;17.60;9.30;;;;;;;-0.81;97.78;102275.97;5036453;28;20558;-80
2023/01/21 08:53:11;;;;;;;20.13;10.13;;;;;;;-0.81;97.96;102283.81;5037343;28;20222;-81
2023/01/21 08:55:37;;;;;;;17.80;10.00;;;;;;;-0.79;97.71;102279.47;5036328;28;20222;-80
2023/01/21 08:58:04;;;;;;;17.30;9.07;;;;;;;-0.77;97.73;102280.38;5037318;28;20269;-81
2023/01/21 09:00:31;;;;;;;19.73;9.90;;;;;;;-0.76;97.83;102280.38;5035356;28;20229;-81
2023/01/21 09:02:59;;;;;;;20.40;9.53;;;;;;;-0.74;97.76;102283.00;5035810;28;20202;-80
2023/01/21 09:05:26;;;;;;;21.10;10.57;;;;;;;-0.74;97.86;102286.50;5035724;28;20218;-81
2023/01/21 09:07:52;;;;;;;18.87;10.07;;;;;;;-0.73;97.47;102277.81;5031095;28;20211;-80
2023/01/21 09:13:03;;;;;;;22.43;11.50;;;;;;;-0.71;97.44;102286.50;5036236;28;20234;-80
2023/01/21 09:15:30;;;;;;;18.07;10.30;;;;;;;-0.71;97.23;102286.50;5034855;28;20238;-80
2023/01/21 09:17:56;;;;;;;22.30;11.13;;;;;;;-0.68;97.31;102295.25;5033632;28;20709;-80
2023/01/21 09:20:24;;;;;;;23.03;11.83;;;;;;;-0.65;97.10;102295.28;5034498;28;20210;-81
2023/01/21 09:22:50;;;;;;;23.37;11.00;;;;;;;-0.63;96.76;102294.44;5039260;28;20199;-80
2023/01/21 09:25:17;;;;;;;22.70;11.53;;;;;;;-0.61;97.07;102291.84;5038169;28;20232;-80
2023/01/21 09:27:44;;;;;;;27.13;12.60;;;;;;;-0.59;97.12;102293.59;5035348;28;20216;-80
2023/01/21 09:30:11;;;;;;;22.40;12.60;;;;;;;-0.56;96.92;102292.75;5039450;28;20237;-80
2023/01/21 09:32:37;;;;;;;24.93;12.87;;;;;;;-0.52;97.27;102303.25;5039948;28;20222;-80
2023/01/21 09:35:04;;;;;;;25.23;12.93;;;;;;;-0.50;96.92;102295.41;5035915;28;20241;-80
2023/01/21 09:37:33;;;;;;;21.50;11.73;;;;;;;-0.48;97.02;102296.31;5031936;28;20206;-80
2023/01/21 09:40:00;;;;;;;22.33;12.23;;;;;;;-0.46;97.05;102300.69;5038667;28;20275;-80
2023/01/21 09:42:30;;;;;;;29.43;12.40;;;;;;;-0.45;96.87;102302.44;5036325;28;20213;-80
2023/01/21 09:44:59;;;;;;;25.47;13.17;;;;;;;-0.43;97.33;102307.69;5039402;28;20222;-83
2023/01/21 09:47:31;;;;;;;23.87;12.30;;;;;;;-0.41;97.03;102305.97;5035741;28;20198;-83
2023/01/21 09:50:02;;;;;;;26.50;13.17;;;;;;;-0.39;96.88;102306.88;5031951;28;20195;-83
2023/01/21 09:52:37;;;;;;;25.53;12.57;;;;;;;-0.36;96.76;102305.13;5034024;28;20232;-83
2023/01/21 09:55:06;;;;;;;26.73;12.17;;;;;;;-0.34;97.00;102305.13;5036514;28;20228;-83
2023/01/21 09:57:46;;;;;;;23.40;12.37;;;;;;;-0.32;96.87;102313.88;5039717;28;20633;-83
2023/01/21 10:00:29;;;;;;;25.37;12.80;;;;;;;-0.29;96.62;102316.53;5037314;28;20216;-83
2023/01/21 10:03:03;;;;;;;24.07;12.27;;;;;;;-0.28;96.72;102302.56;5037829;28;20658;-83
2023/01/21 10:06:00;;;;;;;28.53;12.90;;;;;;;-0.25;96.88;102306.97;5040101;28;20305;-83
2023/01/21 10:08:42;;;;;;;33.80;14.63;;;;;;;-0.23;96.69;102307.84;5033476;28;20205;-83
2023/01/21 10:11:22;;;;;;;31.13;15.10;;;;;;;-0.21;96.69;102307.00;5034520;28;20205;-83
2023/01/21 10:14:06;;;;;;;30.50;15.37;;;;;;;-0.17;96.57;102310.50;5040456;28;20250;-83
2023/01/21 10:16:42;;;;;;;33.33;14.60;;;;;;;-0.15;96.46;102312.25;5036760;28;20205;-82
2023/01/21 10:19:15;;;;;;;35.73;18.10;;;;;;;-0.11;96.67;102305.31;5032586;28;20209;-82
2023/01/21 10:21:48;;;;;;;35.00;17.67;;;;;;;-0.09;96.58;102314.94;5033684;28;20203;-82
2023/01/21 10:24:20;;;;;;;28.07;15.67;;;;;;;-0.06;96.50;102309.72;5032345;28;20242;-82
2023/01/21 10:26:49;;;;;;;31.57;15.70;;;;;;;-0.05;96.64;102314.09;5033246;28;20214;-81
2023/01/21 10:29:17;;;;;;;29.83;13.50;;;;;;;-0.02;96.67;102303.66;5035343;28;20229;-82
2023/01/21 10:31:49;;;;;;;27.77;15.13;;;;;;;0.02;96.70;102309.75;5032849;28;20222;-82
2023/01/21 10:34:19;;;;;;;28.20;13.33;;;;;;;0.06;96.71;102300.19;5028210;28;20229;-81
2023/01/21 10:37:05;;;;;;;27.63;13.50;;;;;;;0.09;96.95;102302.81;5033900;28;20214;-81
2023/01/21 10:39:44;;;;;;;29.93;13.67;;;;;;;0.13;96.93;102302.88;5031764;28;20201;-81
2023/01/21 10:42:40;;;;;;;26.53;12.97;;;;;;;0.17;96.85;102302.03;5029880;28;20210;-82
2023/01/21 10:45:17;;;;;;;46.13;16.13;;;;;;;0.21;96.58;102308.13;5035749;28;20700;-81
2023/01/21 10:47:50;;;;;;;23.97;12.93;;;;;;;0.24;96.51;102295.06;5028566;28;20202;-82
2023/01/21 10:50:28;;;;;;;23.30;12.50;;;;;;;0.27;96.63;102297.69;5029106;28;20194;-81
2023/01/21 10:53:00;;;;;;;22.40;11.53;;;;;;;0.29;96.45;102291.59;5033626;28;20804;-82
2023/01/21 10:55:44;;;;;;;20.87;12.10;;;;;;;0.32;96.26;102290.72;5031791;28;20222;-82
2023/01/21 10:58:22;;;;;;;25.37;12.53;;;;;;;0.35;96.04;102296.00;5037413;28;20206;-82
2023/01/21 11:00:51;;;;;;;27.00;12.27;;;;;;;0.38;95.87;102290.75;5033309;28;20228;-82
2023/01/21 11:03:29;;;;;;;22.00;10.67;;;;;;;0.41;95.87;102289.88;5029433;28;20624;-82
2023/01/21 11:05:57;;;;;;;20.77;9.70;;;;;;;0.40;94.65;102291.63;5036922;28;20209;-82
2023/01/21 11:08:26;;;;;;;20.70;10.87;;;;;;;0.40;94.79;102301.25;5032317;28;20209;-82
2023/01/21 11:10:55;;;;;;;19.53;10.27;;;;;;;0.42;94.93;102297.75;5031307;28;20206;-83
2023/01/21 11:13:22;;;;;;;22.20;11.60;;;;;;;0.45;94.29;102297.78;5036097;28;20233;-82
2023/01/21 11:15:52;;;;;;;21.97;11.47;;;;;;;0.47;93.49;102303.03;5028798;28;20233;-82
2023/01/21 11:18:32;;;;;;;16.53;10.17;;;;;;;0.50;93.54;102303.94;5031959;28;20206;-82
2023/01/21 11:21:01;;;;;;;21.43;11.00;;;;;;;0.52;93.37;102299.56;5037008;28;20190;-82
2023/01/21 11:23:30;;;;;;;19.60;10.90;;;;;;;0.55;93.20;102299.56;5031815;28;20224;-82
2023/01/21 11:26:06;;;;;;;18.90;10.70;;;;;;;0.58;93.12;102296.06;5037350;28;20225;-83